sensor_id;sensor_type;location;lat;lon;timestamp;pressure;altitude;pressure_sealevel;temperature;humidity
11413;BME280;5762;43.256;26.960;2024-03-06T00:02:22;100391.38;;;5.60;100.00
11413;BME280;5762;43.256;26.960;2024-03-06T00:04:52;100391.09;;;5.59;100.00
11413;BME280;5762;43.256;26.960;2024-03-06T00:07:20;100387.27;;;5.52;100.00
11413;BME280;5762;43.256;26.960;2024-03-06T00:09:48;100393.20;;;5.57;100.00
11413;BME280;5762;43.256;26.960;2024-03-06T00:12:17;100389.71;;;5.54;100.00
11413;BME280;5762;43.256;26.960;2024-03-06T00:14:45;100388.30;;;5.49;100.00
11413;BME280;5762;43.256;26.960;2024-03-06T00:17:13;100397.13;;;5.47;100.00
11413;BME280;5762;43.256;26.960;2024-03-06T00:19:42;100403.02;;;5.46;100.00
11413;BME280;5762;43.256;26.960;2024-03-06T00:22:10;100398.68;;;5.43;100.00
11413;BME280;5762;43.256;26.960;2024-03-06T00:24:38;100402.98;;;5.44;100.00
11413;BME280;5762;43.256;26.960;2024-03-06T00:27:06;100401.89;;;5.42;100.00
11413;BME280;5762;43.256;26.960;2024-03-06T00:29:39;100393.48;;;5.36;100.00
11413;BME280;5762;43.256;26.960;2024-03-06T00:32:04;100399.09;;;5.34;100.00
11413;BME280;5762;43.256;26.960;2024-03-06T00:34:33;100404.19;;;5.53;100.00
11413;BME280;5762;43.256;26.960;2024-03-06T00:37:01;100404.61;;;5.45;100.00
11413;BME280;5762;43.256;26.960;2024-03-06T00:39:29;100394.48;;;5.49;100.00
11413;BME280;5762;43.256;26.960;2024-03-06T00:41:58;100402.81;;;5.50;100.00
11413;BME280;5762;43.256;26.960;2024-03-06T00:44:26;100394.02;;;5.57;100.00
11413;BME280;5762;43.256;26.960;2024-03-06T00:46:54;100392.00;;;5.45;100.00
11413;BME280;5762;43.256;26.960;2024-03-06T00:49:22;100393.66;;;5.49;100.00
11413;BME280;5762;43.256;26.960;2024-03-06T00:51:50;100395.50;;;5.46;100.00
11413;BME280;5762;43.256;26.960;2024-03-06T00:54:18;100387.77;;;5.49;100.00
11413;BME280;5762;43.256;26.960;2024-03-06T00:56:46;100405.05;;;5.58;100.00
11413;BME280;5762;43.256;26.960;2024-03-06T00:59:14;100407.48;;;5.60;100.00
11413;BME280;5762;43.256;26.960;2024-03-06T01:01:43;100409.70;;;5.65;100.00
11413;BME280;5762;43.256;26.960;2024-03-06T01:04:11;100408.61;;;5.64;100.00
11413;BME280;5762;43.256;26.960;2024-03-06T01:06:40;100410.05;;;5.71;100.00
11413;BME280;5762;43.256;26.960;2024-03-06T01:09:09;100407.09;;;5.70;100.00
11413;BME280;5762;43.256;26.960;2024-03-06T01:11:37;100406.84;;;5.72;100.00
11413;BME280;5762;43.256;26.960;2024-03-06T01:14:05;100405.03;;;5.78;100.00
11413;BME280;5762;43.256;26.960;2024-03-06T01:16:33;100404.03;;;5.84;100.00
11413;BME280;5762;43.256;26.960;2024-03-06T01:19:01;100398.84;;;5.77;100.00
11413;BME280;5762;43.256;26.960;2024-03-06T01:21:30;100395.42;;;5.82;100.00
11413;BME280;5762;43.256;26.960;2024-03-06T01:23:58;100394.42;;;5.88;100.00
11413;BME280;5762;43.256;26.960;2024-03-06T01:26:26;100385.42;;;5.77;100.00
11413;BME280;5762;43.256;26.960;2024-03-06T01:28:54;100398.35;;;5.80;100.00
11413;BME280;5762;43.256;26.960;2024-03-06T01:31:23;100395.07;;;5.76;100.00
11413;BME280;5762;43.256;26.960;2024-03-06T01:33:51;100391.29;;;5.74;100.00
11413;BME280;5762;43.256;26.960;2024-03-06T01:36:19;100393.34;;;5.67;100.00
11413;BME280;5762;43.256;26.960;2024-03-06T01:38:47;100395.22;;;5.66;100.00
11413;BME280;5762;43.256;26.960;2024-03-06T01:41:15;100398.69;;;5.64;100.00
11413;BME280;5762;43.256;26.960;2024-03-06T01:43:43;100403.31;;;5.69;100.00
11413;BME280;5762;43.256;26.960;2024-03-06T01:46:12;100398.41;;;5.63;100.00
11413;BME280;5762;43.256;26.960;2024-03-06T01:48:40;100402.64;;;5.59;100.00
11413;BME280;5762;43.256;26.960;2024-03-06T01:51:08;100396.95;;;5.53;100.00
11413;BME280;5762;43.256;26.960;2024-03-06T01:53:36;100406.59;;;5.52;100.00
11413;BME280;5762;43.256;26.960;2024-03-06T01:56:05;100402.84;;;5.53;100.00
11413;BME280;5762;43.256;26.960;2024-03-06T01:58:33;100410.66;;;5.57;100.00
11413;BME280;5762;43.256;26.960;2024-03-06T02:01:01;100410.58;;;5.49;100.00
11413;BME280;5762;43.256;26.960;2024-03-06T02:03:31;100420.34;;;5.58;100.00
11413;BME280;5762;43.256;26.960;2024-03-06T02:05:59;100429.81;;;5.63;100.00
11413;BME280;5762;43.256;26.960;2024-03-06T02:08:28;100436.87;;;5.69;100.00
11413;BME280;5762;43.256;26.960;2024-03-06T02:10:56;100436.95;;;5.74;100.00
11413;BME280;5762;43.256;26.960;2024-03-06T02:13:24;100432.36;;;5.72;100.00
11413;BME280;5762;43.256;26.960;2024-03-06T02:15:52;100431.79;;;5.70;100.00
11413;BME280;5762;43.256;26.960;2024-03-06T02:18:21;100428.04;;;5.71;100.00
11413;BME280;5762;43.256;26.960;2024-03-06T02:20:49;100436.66;;;5.73;100.00
11413;BME280;5762;43.256;26.960;2024-03-06T02:23:17;100429.45;;;5.76;100.00
11413;BME280;5762;43.256;26.960;2024-03-06T02:25:46;100428.71;;;5.81;100.00
11413;BME280;5762;43.256;26.960;2024-03-06T02:28:14;100431.15;;;5.82;100.00
11413;BME280;5762;43.256;26.960;2024-03-06T02:30:43;100423.94;;;5.85;100.00
11413;BME280;5762;43.256;26.960;2024-03-06T02:33:11;100428.81;;;5.88;100.00
11413;BME280;5762;43.256;26.960;2024-03-06T02:35:40;100427.78;;;5.92;100.00
11413;BME280;5762;43.256;26.960;2024-03-06T02:38:08;100433.56;;;6.03;100.00
11413;BME280;5762;43.256;26.960;2024-03-06T02:40:36;100429.81;;;6.04;100.00
11413;BME280;5762;43.256;26.960;2024-03-06T02:43:04;100426.09;;;6.08;100.00
11413;BME280;5762;43.256;26.960;2024-03-06T02:45:32;100426.38;;;6.09;100.00
11413;BME280;5762;43.256;26.960;2024-03-06T02:48:01;100426.63;;;6.07;100.00
11413;BME280;5762;43.256;26.960;2024-03-06T02:50:29;100431.00;;;6.13;100.00
11413;BME280;5762;43.256;26.960;2024-03-06T02:52:57;100427.06;;;6.21;100.00
11413;BME280;5762;43.256;26.960;2024-03-06T02:55:25;100419.44;;;6.13;100.00
11413;BME280;5762;43.256;26.960;2024-03-06T02:57:53;100417.00;;;6.11;100.00
11413;BME280;5762;43.256;26.960;2024-03-06T03:00:21;100413.22;;;6.10;100.00
11413;BME280;5762;43.256;26.960;2024-03-06T03:02:49;100424.03;;;6.15;100.00
11413;BME280;5762;43.256;26.960;2024-03-06T03:05:18;100417.81;;;6.12;100.00
11413;BME280;5762;43.256;26.960;2024-03-06T03:07:46;100411.94;;;6.15;100.00
11413;BME280;5762;43.256;26.960;2024-03-06T03:10:14;100403.91;;;6.17;100.00
11413;BME280;5762;43.256;26.960;2024-03-06T03:12:42;100403.34;;;6.15;100.00
11413;BME280;5762;43.256;26.960;2024-03-06T03:15:11;100399.63;;;6.19;100.00
11413;BME280;5762;43.256;26.960;2024-03-06T03:17:40;100405.05;;;6.26;100.00
11413;BME280;5762;43.256;26.960;2024-03-06T03:20:08;100400.74;;;6.23;100.00
11413;BME280;5762;43.256;26.960;2024-03-06T03:22:41;100395.42;;;6.30;100.00
11413;BME280;5762;43.256;26.960;2024-03-06T03:25:08;100391.19;;;6.37;100.00
11413;BME280;5762;43.256;26.960;2024-03-06T03:27:37;100382.84;;;6.36;100.00
11413;BME280;5762;43.256;26.960;2024-03-06T03:30:12;100385.53;;;6.36;100.00
11413;BME280;5762;43.256;26.960;2024-03-06T03:32:41;100387.41;;;6.35;100.00
11413;BME280;5762;43.256;26.960;2024-03-06T03:35:09;100384.13;;;6.31;100.00
11413;BME280;5762;43.256;26.960;2024-03-06T03:37:38;100391.11;;;6.29;100.00
11413;BME280;5762;43.256;26.960;2024-03-06T03:40:06;100388.16;;;6.31;100.00
11413;BME280;5762;43.256;26.960;2024-03-06T03:42:34;100385.96;;;6.23;100.00
11413;BME280;5762;43.256;26.960;2024-03-06T03:45:03;100387.50;;;6.16;100.00
11413;BME280;5762;43.256;26.960;2024-03-06T03:47:31;100398.47;;;6.12;100.00
11413;BME280;5762;43.256;26.960;2024-03-06T03:49:59;100398.22;;;6.14;100.00
11413;BME280;5762;43.256;26.960;2024-03-06T03:52:28;100406.25;;;6.11;100.00
11413;BME280;5762;43.256;26.960;2024-03-06T03:54:56;100408.91;;;6.09;100.00
11413;BME280;5762;43.256;26.960;2024-03-06T03:57:24;100410.48;;;6.04;100.00
11413;BME280;5762;43.256;26.960;2024-03-06T03:59:52;100417.13;;;5.99;100.00
11413;BME280;5762;43.256;26.960;2024-03-06T04:02:20;100428.94;;;5.98;100.00
11413;BME280;5762;43.256;26.960;2024-03-06T04:04:49;100430.00;;;5.97;100.00
11413;BME280;5762;43.256;26.960;2024-03-06T04:07:17;100437.78;;;5.96;100.00
11413;BME280;5762;43.256;26.960;2024-03-06T04:09:45;100436.72;;;5.97;100.00
11413;BME280;5762;43.256;26.960;2024-03-06T04:12:14;100450.44;;;5.98;100.00
11413;BME280;5762;43.256;26.960;2024-03-06T04:14:42;100444.78;;;5.97;100.00
11413;BME280;5762;43.256;26.960;2024-03-06T04:17:10;100444.19;;;5.93;100.00
11413;BME280;5762;43.256;26.960;2024-03-06T04:19:38;100449.05;;;5.96;100.00
11413;BME280;5762;43.256;26.960;2024-03-06T04:22:06;100458.67;;;5.92;100.00
11413;BME280;5762;43.256;26.960;2024-03-06T04:24:34;100456.52;;;5.91;100.00
11413;BME280;5762;43.256;26.960;2024-03-06T04:27:02;100455.67;;;5.88;100.00
11413;BME280;5762;43.256;26.960;2024-03-06T04:29:31;100455.64;;;5.86;100.00
11413;BME280;5762;43.256;26.960;2024-03-06T04:31:59;100449.17;;;5.84;100.00
11413;BME280;5762;43.256;26.960;2024-03-06T04:34:27;100459.10;;;5.84;100.00
11413;BME280;5762;43.256;26.960;2024-03-06T04:36:55;100458.29;;;5.83;100.00
11413;BME280;5762;43.256;26.960;2024-03-06T04:39:23;100459.00;;;5.76;100.00
11413;BME280;5762;43.256;26.960;2024-03-06T04:41:51;100457.58;;;5.71;100.00
11413;BME280;5762;43.256;26.960;2024-03-06T04:44:19;100465.39;;;5.72;100.00
11413;BME280;5762;43.256;26.960;2024-03-06T04:46:49;100465.67;;;5.73;100.00
11413;BME280;5762;43.256;26.960;2024-03-06T04:49:17;100471.08;;;5.76;100.00
11413;BME280;5762;43.256;26.960;2024-03-06T04:51:45;100469.91;;;5.69;100.00
11413;BME280;5762;43.256;26.960;2024-03-06T04:54:14;100469.17;;;5.74;100.00
11413;BME280;5762;43.256;26.960;2024-03-06T04:56:41;100467.91;;;5.79;100.00
11413;BME280;5762;43.256;26.960;2024-03-06T04:59:10;100472.92;;;5.73;100.00
11413;BME280;5762;43.256;26.960;2024-03-06T05:01:38;100481.50;;;5.72;100.00
11413;BME280;5762;43.256;26.960;2024-03-06T05:04:06;100484.16;;;5.70;100.00
11413;BME280;5762;43.256;26.960;2024-03-06T05:06:34;100487.30;;;5.64;100.00
11413;BME280;5762;43.256;26.960;2024-03-06T05:09:02;100486.90;;;5.56;100.00
11413;BME280;5762;43.256;26.960;2024-03-06T05:11:31;100494.41;;;5.54;100.00
11413;BME280;5762;43.256;26.960;2024-03-06T05:13:59;100494.13;;;5.53;100.00
11413;BME280;5762;43.256;26.960;2024-03-06T05:16:29;100500.56;;;5.52;100.00
11413;BME280;5762;43.256;26.960;2024-03-06T05:18:57;100498.56;;;5.45;100.00
11413;BME280;5762;43.256;26.960;2024-03-06T05:21:25;100500.27;;;5.34;100.00
11413;BME280;5762;43.256;26.960;2024-03-06T05:23:53;100510.20;;;5.33;100.00
11413;BME280;5762;43.256;26.960;2024-03-06T05:26:22;100514.95;;;5.29;100.00
11413;BME280;5762;43.256;26.960;2024-03-06T05:28:50;100526.36;;;5.19;100.00
11413;BME280;5762;43.256;26.960;2024-03-06T05:31:19;100528.95;;;5.14;100.00
11413;BME280;5762;43.256;26.960;2024-03-06T05:33:48;100527.19;;;5.05;100.00
11413;BME280;5762;43.256;26.960;2024-03-06T05:36:16;100534.86;;;4.99;100.00
11413;BME280;5762;43.256;26.960;2024-03-06T05:38:44;100533.47;;;4.97;100.00
11413;BME280;5762;43.256;26.960;2024-03-06T05:41:13;100536.92;;;4.95;100.00
11413;BME280;5762;43.256;26.960;2024-03-06T05:43:41;100531.80;;;4.93;100.00
11413;BME280;5762;43.256;26.960;2024-03-06T05:46:09;100525.58;;;4.90;100.00
11413;BME280;5762;43.256;26.960;2024-03-06T05:48:37;100528.06;;;4.94;100.00
11413;BME280;5762;43.256;26.960;2024-03-06T05:51:05;100530.50;;;4.96;100.00
11413;BME280;5762;43.256;26.960;2024-03-06T05:53:37;100522.08;;;4.90;100.00
11413;BME280;5762;43.256;26.960;2024-03-06T05:56:08;100526.87;;;4.88;100.00
11413;BME280;5762;43.256;26.960;2024-03-06T05:58:36;100531.99;;;4.89;100.00
11413;BME280;5762;43.256;26.960;2024-03-06T06:01:04;100528.59;;;4.94;100.00
11413;BME280;5762;43.256;26.960;2024-03-06T06:03:32;100531.80;;;4.93;100.00
11413;BME280;5762;43.256;26.960;2024-03-06T06:06:01;100525.63;;;4.93;100.00
11413;BME280;5762;43.256;26.960;2024-03-06T06:08:29;100520.93;;;4.86;100.00
11413;BME280;5762;43.256;26.960;2024-03-06T06:10:57;100520.16;;;4.88;100.00
11413;BME280;5762;43.256;26.960;2024-03-06T06:13:25;100531.46;;;4.90;100.00
11413;BME280;5762;43.256;26.960;2024-03-06T06:15:53;100523.99;;;4.92;100.00
11413;BME280;5762;43.256;26.960;2024-03-06T06:18:21;100519.69;;;4.91;100.00
11413;BME280;5762;43.256;26.960;2024-03-06T06:20:50;100521.02;;;4.91;100.00
11413;BME280;5762;43.256;26.960;2024-03-06T06:23:18;100528.83;;;4.92;100.00
11413;BME280;5762;43.256;26.960;2024-03-06T06:25:46;100517.72;;;4.86;100.00
11413;BME280;5762;43.256;26.960;2024-03-06T06:28:14;100521.73;;;4.69;100.00
11413;BME280;5762;43.256;26.960;2024-03-06T06:30:42;100521.97;;;4.68;100.00
11413;BME280;5762;43.256;26.960;2024-03-06T06:33:10;100532.02;;;4.75;100.00
11413;BME280;5762;43.256;26.960;2024-03-06T06:35:39;100530.49;;;4.79;100.00
11413;BME280;5762;43.256;26.960;2024-03-06T06:38:07;100536.48;;;4.84;100.00
11413;BME280;5762;43.256;26.960;2024-03-06T06:40:35;100538.77;;;4.78;100.00
11413;BME280;5762;43.256;26.960;2024-03-06T06:43:03;100541.86;;;4.86;100.00
11413;BME280;5762;43.256;26.960;2024-03-06T06:45:32;100542.67;;;4.87;100.00
11413;BME280;5762;43.256;26.960;2024-03-06T06:48:00;100547.20;;;4.69;100.00
11413;BME280;5762;43.256;26.960;2024-03-06T06:50:28;100545.91;;;4.72;100.00
11413;BME280;5762;43.256;26.960;2024-03-06T06:52:56;100554.66;;;4.67;100.00
11413;BME280;5762;43.256;26.960;2024-03-06T06:55:25;100557.16;;;4.71;100.00
11413;BME280;5762;43.256;26.960;2024-03-06T06:57:53;100556.39;;;4.74;100.00
11413;BME280;5762;43.256;26.960;2024-03-06T07:00:22;100560.52;;;4.79;100.00
11413;BME280;5762;43.256;26.960;2024-03-06T07:02:50;100557.12;;;4.83;100.00
11413;BME280;5762;43.256;26.960;2024-03-06T07:05:18;100556.75;;;4.94;100.00
11413;BME280;5762;43.256;26.960;2024-03-06T07:07:46;100554.55;;;5.05;100.00
11413;BME280;5762;43.256;26.960;2024-03-06T07:10:19;100550.81;;;5.06;100.00
11413;BME280;5762;43.256;26.960;2024-03-06T07:12:44;100548.47;;;4.95;100.00
11413;BME280;5762;43.256;26.960;2024-03-06T07:15:12;100551.53;;;5.01;100.00
11413;BME280;5762;43.256;26.960;2024-03-06T07:17:40;100550.33;;;5.09;100.00
11413;BME280;5762;43.256;26.960;2024-03-06T07:20:09;100540.17;;;5.11;100.00
11413;BME280;5762;43.256;26.960;2024-03-06T07:22:37;100548.50;;;5.29;100.00
11413;BME280;5762;43.256;26.960;2024-03-06T07:25:05;100541.98;;;5.25;100.00
11413;BME280;5762;43.256;26.960;2024-03-06T07:27:34;100537.63;;;5.21;100.00
11413;BME280;5762;43.256;26.960;2024-03-06T07:30:03;100537.92;;;5.22;100.00
11413;BME280;5762;43.256;26.960;2024-03-06T07:32:31;100541.51;;;5.11;100.00
11413;BME280;5762;43.256;26.960;2024-03-06T07:34:59;100550.99;;;5.16;100.00
11413;BME280;5762;43.256;26.960;2024-03-06T07:37:27;100557.75;;;5.19;100.00
11413;BME280;5762;43.256;26.960;2024-03-06T07:39:55;100555.73;;;5.28;100.00
11413;BME280;5762;43.256;26.960;2024-03-06T07:42:24;100556.16;;;5.37;100.00
11413;BME280;5762;43.256;26.960;2024-03-06T07:44:52;100556.70;;;5.22;100.00
11413;BME280;5762;43.256;26.960;2024-03-06T07:47:20;100555.25;;;5.31;100.00
11413;BME280;5762;43.256;26.960;2024-03-06T07:49:48;100555.47;;;5.44;100.00
11413;BME280;5762;43.256;26.960;2024-03-06T07:52:17;100551.38;;;5.58;100.00
11413;BME280;5762;43.256;26.960;2024-03-06T07:54:45;100546.81;;;5.76;100.00
11413;BME280;5762;43.256;26.960;2024-03-06T07:57:13;100537.95;;;5.75;100.00
11413;BME280;5762;43.256;26.960;2024-03-06T07:59:41;100527.50;;;5.95;100.00
11413;BME280;5762;43.256;26.960;2024-03-06T08:02:10;100522.76;;;6.22;100.00
11413;BME280;5762;43.256;26.960;2024-03-06T08:04:38;100508.47;;;6.19;100.00
11413;BME280;5762;43.256;26.960;2024-03-06T08:07:06;100518.80;;;6.29;100.00
11413;BME280;5762;43.256;26.960;2024-03-06T08:09:34;100497.16;;;6.17;100.00
11413;BME280;5762;43.256;26.960;2024-03-06T08:12:12;100495.16;;;6.53;100.00
11413;BME280;5762;43.256;26.960;2024-03-06T08:14:41;100494.81;;;6.74;100.00
11413;BME280;5762;43.256;26.960;2024-03-06T08:17:09;100482.61;;;6.91;100.00
11413;BME280;5762;43.256;26.960;2024-03-06T08:19:37;100476.59;;;7.13;100.00
11413;BME280;5762;43.256;26.960;2024-03-06T08:22:05;100468.47;;;7.08;100.00
11413;BME280;5762;43.256;26.960;2024-03-06T08:24:33;100462.96;;;6.90;100.00
11413;BME280;5762;43.256;26.960;2024-03-06T08:27:01;100463.19;;;6.86;100.00
11413;BME280;5762;43.256;26.960;2024-03-06T08:29:30;100465.78;;;6.76;100.00
11413;BME280;5762;43.256;26.960;2024-03-06T08:31:59;100468.63;;;6.91;100.00
11413;BME280;5762;43.256;26.960;2024-03-06T08:34:28;100466.12;;;7.17;100.00
11413;BME280;5762;43.256;26.960;2024-03-06T08:36:56;100467.36;;;7.41;100.00
11413;BME280;5762;43.256;26.960;2024-03-06T08:39:24;100458.30;;;7.55;100.00
11413;BME280;5762;43.256;26.960;2024-03-06T08:41:52;100449.98;;;7.64;100.00
11413;BME280;5762;43.256;26.960;2024-03-06T08:44:20;100436.76;;;7.55;100.00
11413;BME280;5762;43.256;26.960;2024-03-06T08:46:48;100438.60;;;7.49;100.00
11413;BME280;5762;43.256;26.960;2024-03-06T08:49:17;100431.16;;;7.69;100.00
11413;BME280;5762;43.256;26.960;2024-03-06T08:51:45;100435.96;;;7.57;100.00
11413;BME280;5762;43.256;26.960;2024-03-06T08:54:13;100436.25;;;7.65;100.00
11413;BME280;5762;43.256;26.960;2024-03-06T08:56:43;100434.64;;;7.62;100.00
11413;BME280;5762;43.256;26.960;2024-03-06T08:59:11;100434.61;;;7.57;100.00
11413;BME280;5762;43.256;26.960;2024-03-06T09:01:39;100449.59;;;7.90;100.00
11413;BME280;5762;43.256;26.960;2024-03-06T09:04:07;100437.77;;;8.03;100.00
11413;BME280;5762;43.256;26.960;2024-03-06T09:06:35;100430.36;;;8.41;100.00
11413;BME280;5762;43.256;26.960;2024-03-06T09:09:03;100410.16;;;8.61;100.00
11413;BME280;5762;43.256;26.960;2024-03-06T09:11:32;100396.13;;;8.57;100.00
11413;BME280;5762;43.256;26.960;2024-03-06T09:14:00;100397.98;;;8.41;100.00
11413;BME280;5762;43.256;26.960;2024-03-06T09:16:28;100406.37;;;8.50;100.00
11413;BME280;5762;43.256;26.960;2024-03-06T09:18:56;100408.27;;;8.59;100.00
11413;BME280;5762;43.256;26.960;2024-03-06T09:21:24;100401.23;;;8.43;100.00
11413;BME280;5762;43.256;26.960;2024-03-06T09:23:52;100404.23;;;8.85;100.00
11413;BME280;5762;43.256;26.960;2024-03-06T09:26:21;100391.81;;;8.91;100.00
11413;BME280;5762;43.256;26.960;2024-03-06T09:28:49;100381.28;;;8.85;100.00
11413;BME280;5762;43.256;26.960;2024-03-06T09:31:17;100379.93;;;8.77;100.00
11413;BME280;5762;43.256;26.960;2024-03-06T09:33:45;100386.94;;;8.48;100.00
11413;BME280;5762;43.256;26.960;2024-03-06T09:36:13;100397.48;;;8.59;100.00
11413;BME280;5762;43.256;26.960;2024-03-06T09:38:41;100404.77;;;8.87;100.00
11413;BME280;5762;43.256;26.960;2024-03-06T09:41:10;100394.69;;;8.19;100.00
11413;BME280;5762;43.256;26.960;2024-03-06T09:43:38;100406.08;;;8.38;100.00
11413;BME280;5762;43.256;26.960;2024-03-06T09:46:07;100407.41;;;8.36;100.00
11413;BME280;5762;43.256;26.960;2024-03-06T09:48:35;100417.85;;;8.12;100.00
11413;BME280;5762;43.256;26.960;2024-03-06T09:51:04;100415.92;;;7.95;100.00
11413;BME280;5762;43.256;26.960;2024-03-06T09:53:32;100413.79;;;8.07;100.00
11413;BME280;5762;43.256;26.960;2024-03-06T09:56:01;100420.02;;;8.13;100.00
11413;BME280;5762;43.256;26.960;2024-03-06T09:58:29;100422.55;;;8.50;100.00
11413;BME280;5762;43.256;26.960;2024-03-06T10:00:58;100416.36;;;8.80;100.00
11413;BME280;5762;43.256;26.960;2024-03-06T10:03:27;100409.05;;;9.11;100.00
11413;BME280;5762;43.256;26.960;2024-03-06T10:05:55;100389.89;;;9.07;100.00
11413;BME280;5762;43.256;26.960;2024-03-06T10:08:23;100388.75;;;9.36;100.00
11413;BME280;5762;43.256;26.960;2024-03-06T10:10:52;100361.84;;;8.90;100.00
11413;BME280;5762;43.256;26.960;2024-03-06T10:13:23;100370.17;;;9.06;100.00
11413;BME280;5762;43.256;26.960;2024-03-06T10:15:57;100371.25;;;9.16;100.00
11413;BME280;5762;43.256;26.960;2024-03-06T10:18:28;100358.83;;;9.10;100.00
11413;BME280;5762;43.256;26.960;2024-03-06T10:20:57;100354.78;;;9.10;100.00
11413;BME280;5762;43.256;26.960;2024-03-06T10:23:25;100360.09;;;9.43;100.00
11413;BME280;5762;43.256;26.960;2024-03-06T10:25:54;100354.12;;;9.56;100.00
11413;BME280;5762;43.256;26.960;2024-03-06T10:28:22;100357.62;;;9.56;100.00
11413;BME280;5762;43.256;26.960;2024-03-06T10:30:51;100353.02;;;9.59;100.00
11413;BME280;5762;43.256;26.960;2024-03-06T10:33:19;100350.49;;;9.78;100.00
11413;BME280;5762;43.256;26.960;2024-03-06T10:35:48;100344.55;;;9.76;100.00
11413;BME280;5762;43.256;26.960;2024-03-06T10:38:16;100348.39;;;9.70;100.00
11413;BME280;5762;43.256;26.960;2024-03-06T10:40:46;100348.69;;;9.63;100.00
11413;BME280;5762;43.256;26.960;2024-03-06T10:43:14;100345.48;;;9.49;100.00
11413;BME280;5762;43.256;26.960;2024-03-06T10:45:49;100337.62;;;9.57;100.00
11413;BME280;5762;43.256;26.960;2024-03-06T10:48:17;100335.89;;;9.79;100.00
11413;BME280;5762;43.256;26.960;2024-03-06T10:50:47;100322.84;;;9.94;100.00
11413;BME280;5762;43.256;26.960;2024-03-06T10:53:17;100306.56;;;10.04;100.00
11413;BME280;5762;43.256;26.960;2024-03-06T10:55:45;100284.80;;;9.80;100.00
11413;BME280;5762;43.256;26.960;2024-03-06T10:58:14;100281.22;;;9.40;100.00
11413;BME280;5762;43.256;26.960;2024-03-06T11:00:47;100283.44;;;9.31;100.00
11413;BME280;5762;43.256;26.960;2024-03-06T11:03:16;100288.56;;;9.35;100.00
11413;BME280;5762;43.256;26.960;2024-03-06T11:05:44;100281.28;;;9.80;100.00
11413;BME280;5762;43.256;26.960;2024-03-06T11:08:16;100271.94;;;10.40;100.00
11413;BME280;5762;43.256;26.960;2024-03-06T11:10:49;100258.30;;;10.53;100.00
11413;BME280;5762;43.256;26.960;2024-03-06T11:15:48;100243.94;;;10.26;100.00
11413;BME280;5762;43.256;26.960;2024-03-06T11:23:34;100212.08;;;10.47;100.00
11413;BME280;5762;43.256;26.960;2024-03-06T11:26:05;100205.17;;;10.35;100.00
11413;BME280;5762;43.256;26.960;2024-03-06T11:28:37;100210.30;;;10.37;100.00
11413;BME280;5762;43.256;26.960;2024-03-06T11:31:07;100201.92;;;10.36;100.00
11413;BME280;5762;43.256;26.960;2024-03-06T11:33:47;100203.88;;;10.28;100.00
11413;BME280;5762;43.256;26.960;2024-03-06T11:36:21;100200.57;;;10.36;100.00
11413;BME280;5762;43.256;26.960;2024-03-06T11:38:51;100203.27;;;10.36;100.00
11413;BME280;5762;43.256;26.960;2024-03-06T11:41:25;100192.35;;;10.44;100.00
11413;BME280;5762;43.256;26.960;2024-03-06T11:43:50;100184.26;;;10.41;100.00
11413;BME280;5762;43.256;26.960;2024-03-06T11:46:20;100172.50;;;10.77;100.00
11413;BME280;5762;43.256;26.960;2024-03-06T11:48:52;100152.47;;;10.54;100.00
11413;BME280;5762;43.256;26.960;2024-03-06T11:51:24;100147.20;;;10.65;100.00
11413;BME280;5762;43.256;26.960;2024-03-06T11:53:50;100133.29;;;10.51;100.00
11413;BME280;5762;43.256;26.960;2024-03-06T11:56:18;100124.29;;;10.34;100.00
11413;BME280;5762;43.256;26.960;2024-03-06T11:58:47;100108.61;;;10.33;100.00
11413;BME280;5762;43.256;26.960;2024-03-06T12:01:15;100110.06;;;10.23;100.00
11413;BME280;5762;43.256;26.960;2024-03-06T12:03:44;100110.45;;;10.38;100.00
11413;BME280;5762;43.256;26.960;2024-03-06T12:06:12;100092.34;;;10.36;100.00
11413;BME280;5762;43.256;26.960;2024-03-06T12:08:41;100085.03;;;10.36;100.00
11413;BME280;5762;43.256;26.960;2024-03-06T12:11:09;100079.78;;;10.21;100.00
11413;BME280;5762;43.256;26.960;2024-03-06T12:13:37;100073.84;;;10.17;100.00
11413;BME280;5762;43.256;26.960;2024-03-06T12:16:06;100070.31;;;10.19;100.00
11413;BME280;5762;43.256;26.960;2024-03-06T12:18:35;100064.77;;;10.34;100.00
11413;BME280;5762;43.256;26.960;2024-03-06T12:21:04;100050.34;;;10.15;100.00
11413;BME280;5762;43.256;26.960;2024-03-06T12:23:32;100049.59;;;10.09;100.00
11413;BME280;5762;43.256;26.960;2024-03-06T12:28:33;100054.92;;;10.17;100.00
11413;BME280;5762;43.256;26.960;2024-03-06T12:31:04;100049.72;;;10.25;100.00
11413;BME280;5762;43.256;26.960;2024-03-06T12:33:33;100046.04;;;9.87;100.00
11413;BME280;5762;43.256;26.960;2024-03-06T12:36:04;100046.87;;;10.09;100.00
11413;BME280;5762;43.256;26.960;2024-03-06T12:38:34;100045.40;;;9.98;100.00
11413;BME280;5762;43.256;26.960;2024-03-06T12:41:02;100036.69;;;10.30;100.00
11413;BME280;5762;43.256;26.960;2024-03-06T12:43:30;100024.42;;;10.37;100.00
11413;BME280;5762;43.256;26.960;2024-03-06T12:45:59;100022.12;;;10.26;100.00
11413;BME280;5762;43.256;26.960;2024-03-06T12:48:27;100013.83;;;10.15;100.00
11413;BME280;5762;43.256;26.960;2024-03-06T12:50:55;100006.98;;;10.25;100.00
11413;BME280;5762;43.256;26.960;2024-03-06T12:53:24;100003.98;;;10.48;100.00
11413;BME280;5762;43.256;26.960;2024-03-06T12:55:52;99997.40;;;10.08;100.00
11413;BME280;5762;43.256;26.960;2024-03-06T12:58:20;100000.83;;;10.17;100.00
11413;BME280;5762;43.256;26.960;2024-03-06T13:00:48;99999.70;;;10.23;100.00
11413;BME280;5762;43.256;26.960;2024-03-06T13:03:17;100000.25;;;10.22;100.00
11413;BME280;5762;43.256;26.960;2024-03-06T13:05:45;99991.57;;;10.44;100.00